Westview Chinook — VG3278 — position and weather

sailwx.info

Track history (hours):
 
Tides and Currents Weather Stations Pressure Air Temp Water Temp Dewpoint Dewpoint Depression Visibility Wind Speed Wind Dir Waves Ship Positions

Westview Chinook

Last reported at 2017-Jul-28 03:49 UTC. Time now 2017-Jul-28 04:44 UTC.
Position N 49°12' W 122°54'.

Length 15 m.

Type: Tug. MMSI: 316005622.

Date/timePositionNaut miles runAvg speedWind from/ knotsBaromVisibWave heightAir tempDewpointWater temp
2017-Jul-28 03:49N 49°12' W 122°54'3 7.8
2017-Jul-28 03:26N 49°13' W 122°50'1 1.6
2017-Jul-28 03:00N 49°13' W 122°51'4 4.6
2017-Jul-28 02:10N 49°11' W 122°55'2 6.1
2017-Jul-28 01:54N 49°09' W 122°57'3 4.9
2017-Jul-28 01:15N 49°12' W 122°54'0 1.3
2017-Jul-28 01:00N 49°12' W 122°54'1 0.9
2017-Jul-28 00:27N 49°13' W 122°53'2 4.7
2017-Jul-28 00:00N 49°13' W 122°50'0 0.5
2017-Jul-27 23:30N 49°13' W 122°50'1 1.5
2017-Jul-27 23:00N 49°13' W 122°51'4 0.7
2017-Jul-27 17:17N 49°11' W 122°55'2 4.8
2017-Jul-27 16:49N 49°10' W 122°58'0 0.4
2017-Jul-27 16:27N 49°10' W 122°59'1 1.7
2017-Jul-27 15:52N 49°09' W 123°00'0 0.0
2017-Jul-27 10:41N 49°09' W 123°00'1 1.2
2017-Jul-27 09:29N 49°09' W 123°02'1 1.2
2017-Jul-27 08:59N 49°08' W 123°03'0 0.4
2017-Jul-27 08:30N 49°08' W 123°03'1 1.4
2017-Jul-27 08:00N 49°09' W 123°02'1 1.6
2017-Jul-27 07:24N 49°08' W 123°03'3 4.3
2017-Jul-27 06:36N 49°09' W 122°58'2 7.1
2017-Jul-27 06:22N 49°10' W 122°56'3 7.0
2017-Jul-27 05:59N 49°12' W 122°54'3 6.4
2017-Jul-27 05:29N 49°13' W 122°49'2 5.0
2017-Jul-27 05:00N 49°14' W 122°46'4 7.4
2017-Jul-27 04:30N 49°13' W 122°51'5 3.1
2017-Jul-27 03:02N 49°10' W 122°56'3 2.7
2017-Jul-27 01:58N 49°09' W 123°01'2 3.7
2017-Jul-27 01:27N 49°08' W 123°03'2 4.0
2017-Jul-27 00:58N 49°07' W 123°05'2 4.1
2017-Jul-27 00:28N 49°06' W 123°08'2 3.6
2017-Jul-26 23:56N 49°07' W 123°11'2 3.5
2017-Jul-26 23:29N 49°08' W 123°13'2 3.2
2017-Jul-26 22:58N 49°07' W 123°16'1 2.8
2017-Jul-26 22:28N 49°07' W 123°17'1 2.0
2017-Jul-26 22:00N 49°06' W 123°18'1 1.5
2017-Jul-26 21:29N 49°06' W 123°20'1 1.1
2017-Jul-26 21:00N 49°06' W 123°20'1 2.0
2017-Jul-26 20:29N 49°07' W 123°21'1 1.0
2017-Jul-26 19:58N 49°07' W 123°22'1 1.4
2017-Jul-26 19:29N 49°08' W 123°22'1 2.2
2017-Jul-26 18:59N 49°09' W 123°22'1 2.4
2017-Jul-26 18:30N 49°10' W 123°23'1 2.6
2017-Jul-26 18:00N 49°11' W 123°24'1 2.4
2017-Jul-26 17:30N 49°12' W 123°24'1 2.2
2017-Jul-26 16:59N 49°13' W 123°25'0 1.0
2017-Jul-26 16:30N 49°14' W 123°25'1 1.9
2017-Jul-26 16:00N 49°14' W 123°24'4 7.9
2017-Jul-26 15:30N 49°15' W 123°18'4 7.7
2017-Jul-26 15:00N 49°14' W 123°13'3 1.2
2017-Jul-26 12:36N 49°12' W 123°09'0 2.2
2017-Jul-26 12:28N 49°13' W 123°09'2 4.4
2017-Jul-26 11:56N 49°12' W 123°06'8 6.1
2017-Jul-26 10:34N 49°13' W 122°53'1 7.9
2017-Jul-26 10:30N 49°13' W 122°53'5 8.8
2017-Jul-26 09:59N 49°13' W 122°46'4 8.7
2017-Jul-26 09:30N 49°12' W 122°39'4 1.5
2017-Jul-26 06:33N 49°11' W 122°33'1 6.3
2017-Jul-26 06:27N 49°11' W 122°34'3 5.4
2017-Jul-26 05:51N 49°12' W 122°38'2 6.2
2017-Jul-26 05:30N 49°12' W 122°42'4 7.1
2017-Jul-26 05:00N 49°13' W 122°47'4 7.6
2017-Jul-26 04:30N 49°13' W 122°53'2 1.7
2017-Jul-26 03:35N 49°12' W 122°54'1 7.9
2017-Jul-26 03:30N 49°13' W 122°54'2 0.2
2017-Jul-25 15:58N 49°11' W 122°55'3 5.0
2017-Jul-25 15:27N 49°09' W 122°58'3 3.3
2017-Jul-25 14:36N 49°09' W 123°02'1 1.2
2017-Jul-25 13:59N 49°08' W 123°03'3 5.2
2017-Jul-25 13:28N 49°07' W 123°06'3 5.3
2017-Jul-25 12:58N 49°07' W 123°10'3 5.3
2017-Jul-25 12:28N 49°08' W 123°14'3 5.7
2017-Jul-25 12:00N 49°07' W 123°17'3 5.7
2017-Jul-25 11:29N 49°07' W 123°22'3 6.0
2017-Jul-25 10:59N 49°08' W 123°26'4 7.2
2017-Jul-25 10:28N 49°10' W 123°31'4 7.5
2017-Jul-25 09:59N 49°12' W 123°36'2 0.5
2017-Jul-25 05:52N 49°10' W 123°37'3 8.0
2017-Jul-25 05:30N 49°09' W 123°33'4 8.2
2017-Jul-25 04:58N 49°08' W 123°26'5 8.6
2017-Jul-25 04:26N 49°06' W 123°20'4 9.2
2017-Jul-25 03:58N 49°08' W 123°14'5 8.6
2017-Jul-25 03:21N 49°07' W 123°06'3 8.0
2017-Jul-25 02:57N 49°09' W 123°02'6 6.6
2017-Jul-25 02:01N 49°12' W 122°54'0 7.1
2017-Jul-25 01:58N 49°13' W 122°54'5 3.0
2017-Jul-25 00:14N 49°14' W 122°46'0 0.0
2017-Jul-24 23:55N 49°14' W 122°46'0 0.0
2017-Jul-24 23:30N 49°14' W 122°46'0 0.0
2017-Jul-24 22:58N 49°14' W 122°46'0 0.0
2017-Jul-24 22:27N 49°14' W 122°46'0 0.0
2017-Jul-24 21:56N 49°14' W 122°46'0 0.0
2017-Jul-24 21:29N 49°14' W 122°46'0 0.0
2017-Jul-24 20:53N 49°14' W 122°46'0 0.0
2017-Jul-24 20:25N 49°14' W 122°46'0 0.0
2017-Jul-24 19:58N 49°14' W 122°46'0 0.0
2017-Jul-24 19:27N 49°14' W 122°46'0 0.0
2017-Jul-24 18:58N 49°14' W 122°46'0 0.0
2017-Jul-24 18:29N 49°14' W 122°46'0 0.0
2017-Jul-24 17:58N 49°14' W 122°46'0 0.0
2017-Jul-24 16:52N 49°14' W 122°46'1 3.2
2017-Jul-24 16:29N 49°13' W 122°48'4 6.8
2017-Jul-24 15:57N 49°13' W 122°53'5 0.3
2017-Jul-24 01:20N 49°14' W 122°46'10 0.4
2017-Jul-22 23:31N 49°09' W 122°60'1 3.7
2017-Jul-22 23:16N 49°10' W 122°58'7 4.1
2017-Jul-22 21:27N 49°07' W 123°09'2 3.9
2017-Jul-22 20:54N 49°07' W 123°12'3 5.6
2017-Jul-22 20:26N 49°07' W 123°16'2 4.7
2017-Jul-22 20:00N 49°08' W 123°19'4 9.1
2017-Jul-22 19:30N 49°12' W 123°18'3 5.9
2017-Jul-22 18:57N 49°15' W 123°16'2 3.2
2017-Jul-22 18:28N 49°14' W 123°14'9 0.6
2017-Jul-22 01:26N 49°09' W 123°02'4 3.7
2017-Jul-22 00:24N 49°07' W 123°07'3 7.8
2017-Jul-21 23:59N 49°07' W 123°12'4 6.7
2017-Jul-21 23:27N 49°07' W 123°17'3 4.6
2017-Jul-21 22:53N 49°07' W 123°21'3 6.4
2017-Jul-21 22:24N 49°08' W 123°25'3 6.6
2017-Jul-21 22:00N 49°10' W 123°28'4 9.0
2017-Jul-21 21:30N 49°12' W 123°23'5 9.1
2017-Jul-21 21:00N 49°15' W 123°18'4 7.4
2017-Jul-21 20:30N 49°13' W 123°13'5 1.4
2017-Jul-21 16:54N 49°12' W 123°05'0 0.0
2017-Jul-21 16:25N 49°12' W 123°05'0 0.0
2017-Jul-21 16:00N 49°12' W 123°05'0 0.0
2017-Jul-21 00:07N 49°12' W 123°05'0 2.0
2017-Jul-21 00:00N 49°12' W 123°05'1 2.2
2017-Jul-20 23:29N 49°12' W 123°07'1 2.7
2017-Jul-20 23:00N 49°12' W 123°05'4 5.4
2017-Jul-20 22:13N 49°11' W 122°59'1 4.8
2017-Jul-20 22:00N 49°11' W 122°58'2 2.8
2017-Jul-20 21:16N 49°12' W 122°54'1 3.6
2017-Jul-20 20:59N 49°11' W 122°55'2 4.8
2017-Jul-20 20:29N 49°13' W 122°53'4 8.5
2017-Jul-20 19:58N 49°14' W 122°46'0 0.3
2017-Jul-20 19:29N 49°14' W 122°46'0 0.0
2017-Jul-20 19:00N 49°14' W 122°46'0 0.0
2017-Jul-20 18:30N 49°14' W 122°46'0 0.0
2017-Jul-20 18:00N 49°14' W 122°46'0 0.0
2017-Jul-20 17:30N 49°14' W 122°46'0 0.0
2017-Jul-20 17:00N 49°14' W 122°46'1 2.4
2017-Jul-20 16:26N 49°13' W 122°48'2 5.6
2017-Jul-20 16:00N 49°13' W 122°51'3 5.3
2017-Jul-20 15:30N 49°12' W 122°55'1 1.5
2017-Jul-20 15:00N 49°11' W 122°55'7 4.1
2017-Jul-20 13:22N 49°12' W 123°05'1 2.0
2017-Jul-20 12:37N 49°12' W 123°08'1 6.5
2017-Jul-20 12:29N 49°12' W 123°06'4 7.6
2017-Jul-20 11:55N 49°11' W 122°60'3 6.4
2017-Jul-20 11:30N 49°12' W 122°56'3 6.0
2017-Jul-20 10:59N 49°13' W 122°51'4 7.5
2017-Jul-20 10:30N 49°13' W 122°46'4 7.8
2017-Jul-20 09:57N 49°12' W 122°39'4 7.1
2017-Jul-20 09:24N 49°11' W 122°34'0 0.1
2017-Jul-20 06:23N 49°11' W 122°33'2 5.1
2017-Jul-20 05:59N 49°12' W 122°36'2 5.0
2017-Jul-20 05:29N 49°12' W 122°39'2 5.2
2017-Jul-20 05:00N 49°13' W 122°43'3 5.6
2017-Jul-20 04:30N 49°13' W 122°47'3 5.8
2017-Jul-20 04:00N 49°13' W 122°52'2 4.1
2017-Jul-20 03:28N 49°12' W 122°54'4 6.0
2017-Jul-20 02:51N 49°11' W 123°00'3 6.8
2017-Jul-20 02:21N 49°12' W 123°05'3 5.9
2017-Jul-20 01:53N 49°12' W 123°09'1 1.7
2017-Jul-20 01:21N 49°12' W 123°08'2 1.0
2017-Jul-19 23:44N 49°12' W 123°06'2 3.9
2017-Jul-19 23:08N 49°12' W 123°09'0 0.3
2017-Jul-19 22:59N 49°12' W 123°09'0 0.0
2017-Jul-19 22:26N 49°12' W 123°09'0 0.0
2017-Jul-19 21:53N 49°12' W 123°09'2 1.1
2017-Jul-19 19:47N 49°12' W 123°06'2 0.2
2017-Jul-19 11:25N 49°12' W 123°08'3 7.9
2017-Jul-19 11:00N 49°13' W 123°13'4 8.1
2017-Jul-19 10:30N 49°16' W 123°18'5 9.6
2017-Jul-19 10:00N 49°15' W 123°25'5 9.9
2017-Jul-19 09:30N 49°14' W 123°33'9 3.1
2017-Jul-19 06:36N 49°12' W 123°46'4 8.4
2017-Jul-19 06:10N 49°11' W 123°40'1 8.3
2017-Jul-19 06:00N 49°10' W 123°38'5 8.0
2017-Jul-19 05:26N 49°09' W 123°32'4 8.1
2017-Jul-19 04:59N 49°08' W 123°27'4 8.1
2017-Jul-19 04:29N 49°06' W 123°21'9 8.9
2017-Jul-19 03:29N 49°07' W 123°07'4 8.4
2017-Jul-19 03:00N 49°09' W 123°02'0 0.8
2017-Jul-19 02:29N 49°09' W 123°01'4 8.7
2017-Jul-19 02:00N 49°11' W 122°55'4 8.5
2017-Jul-19 01:30N 49°13' W 122°50'3 6.5
2017-Jul-19 01:00N 49°14' W 122°46'0 0.0
2017-Jul-18 10:31N 49°14' W 122°46'0 4.7
2017-Jul-18 10:29N 49°14' W 122°46'0 0.2
2017-Jul-18 10:00N 49°14' W 122°46'2 2.9
2017-Jul-18 09:28N 49°13' W 122°48'3 7.4
2017-Jul-18 08:59N 49°13' W 122°53'4 7.2
2017-Jul-18 08:29N 49°10' W 122°56'4 7.8
2017-Jul-18 08:00N 49°09' W 123°02'0 0.4
2017-Jul-18 07:30N 49°09' W 123°02'1 2.7
2017-Jul-18 07:00N 49°08' W 123°04'3 6.0
2017-Jul-18 06:30N 49°07' W 123°08'3 5.4
2017-Jul-18 06:00N 49°07' W 123°12'3 5.1
2017-Jul-18 05:28N 49°07' W 123°16'3 5.6
2017-Jul-18 05:00N 49°06' W 123°19'0 0.2
2017-Jul-18 04:26N 49°06' W 123°19'4 8.6
2017-Jul-18 04:00N 49°08' W 123°14'  
Track history (hours):
 
Tides and Currents Weather Stations Pressure Air Temp Water Temp Dewpoint Dewpoint Depression Visibility Wind Speed Wind Dir Waves Ship Positions

Westview Chinook

Last reported at 2017-Jul-28 03:49 UTC. Time now 2017-Jul-28 04:44 UTC.
Position N 49°12' W 122°54'.

Length 15 m.

Type: Tug. MMSI: 316005622.

Date/timePositionNaut miles runAvg speedWind from/ knotsBaromVisibWave heightAir tempDewpointWater temp
2017-Jul-28 03:49N 49°12' W 122°54'3 7.8
2017-Jul-28 03:26N 49°13' W 122°50'1 1.6
2017-Jul-28 03:00N 49°13' W 122°51'4 4.6
2017-Jul-28 02:10N 49°11' W 122°55'2 6.1
2017-Jul-28 01:54N 49°09' W 122°57'3 4.9
2017-Jul-28 01:15N 49°12' W 122°54'0 1.3
2017-Jul-28 01:00N 49°12' W 122°54'1 0.9
2017-Jul-28 00:27N 49°13' W 122°53'2 4.7
2017-Jul-28 00:00N 49°13' W 122°50'0 0.5
2017-Jul-27 23:30N 49°13' W 122°50'1 1.5
2017-Jul-27 23:00N 49°13' W 122°51'4 0.7
2017-Jul-27 17:17N 49°11' W 122°55'2 4.8
2017-Jul-27 16:49N 49°10' W 122°58'0 0.4
2017-Jul-27 16:27N 49°10' W 122°59'1 1.7
2017-Jul-27 15:52N 49°09' W 123°00'0 0.0
2017-Jul-27 10:41N 49°09' W 123°00'1 1.2
2017-Jul-27 09:29N 49°09' W 123°02'1 1.2
2017-Jul-27 08:59N 49°08' W 123°03'0 0.4
2017-Jul-27 08:30N 49°08' W 123°03'1 1.4
2017-Jul-27 08:00N 49°09' W 123°02'1 1.6
2017-Jul-27 07:24N 49°08' W 123°03'3 4.3
2017-Jul-27 06:36N 49°09' W 122°58'2 7.1
2017-Jul-27 06:22N 49°10' W 122°56'3 7.0
2017-Jul-27 05:59N 49°12' W 122°54'3 6.4
2017-Jul-27 05:29N 49°13' W 122°49'2 5.0
2017-Jul-27 05:00N 49°14' W 122°46'4 7.4
2017-Jul-27 04:30N 49°13' W 122°51'5 3.1
2017-Jul-27 03:02N 49°10' W 122°56'3 2.7
2017-Jul-27 01:58N 49°09' W 123°01'2 3.7
2017-Jul-27 01:27N 49°08' W 123°03'2 4.0
2017-Jul-27 00:58N 49°07' W 123°05'2 4.1
2017-Jul-27 00:28N 49°06' W 123°08'2 3.6
2017-Jul-26 23:56N 49°07' W 123°11'2 3.5
2017-Jul-26 23:29N 49°08' W 123°13'2 3.2
2017-Jul-26 22:58N 49°07' W 123°16'1 2.8
2017-Jul-26 22:28N 49°07' W 123°17'1 2.0
2017-Jul-26 22:00N 49°06' W 123°18'1 1.5
2017-Jul-26 21:29N 49°06' W 123°20'1 1.1
2017-Jul-26 21:00N 49°06' W 123°20'1 2.0
2017-Jul-26 20:29N 49°07' W 123°21'1 1.0
2017-Jul-26 19:58N 49°07' W 123°22'1 1.4
2017-Jul-26 19:29N 49°08' W 123°22'1 2.2
2017-Jul-26 18:59N 49°09' W 123°22'1 2.4
2017-Jul-26 18:30N 49°10' W 123°23'1 2.6
2017-Jul-26 18:00N 49°11' W 123°24'1 2.4
2017-Jul-26 17:30N 49°12' W 123°24'1 2.2
2017-Jul-26 16:59N 49°13' W 123°25'0 1.0
2017-Jul-26 16:30N 49°14' W 123°25'1 1.9
2017-Jul-26 16:00N 49°14' W 123°24'4 7.9
2017-Jul-26 15:30N 49°15' W 123°18'4 7.7
2017-Jul-26 15:00N 49°14' W 123°13'3 1.2
2017-Jul-26 12:36N 49°12' W 123°09'0 2.2
2017-Jul-26 12:28N 49°13' W 123°09'2 4.4
2017-Jul-26 11:56N 49°12' W 123°06'8 6.1
2017-Jul-26 10:34N 49°13' W 122°53'1 7.9
2017-Jul-26 10:30N 49°13' W 122°53'5 8.8
2017-Jul-26 09:59N 49°13' W 122°46'4 8.7
2017-Jul-26 09:30N 49°12' W 122°39'4 1.5
2017-Jul-26 06:33N 49°11' W 122°33'1 6.3
2017-Jul-26 06:27N 49°11' W 122°34'3 5.4
2017-Jul-26 05:51N 49°12' W 122°38'2 6.2
2017-Jul-26 05:30N 49°12' W 122°42'4 7.1
2017-Jul-26 05:00N 49°13' W 122°47'4 7.6
2017-Jul-26 04:30N 49°13' W 122°53'2 1.7
2017-Jul-26 03:35N 49°12' W 122°54'1 7.9
2017-Jul-26 03:30N 49°13' W 122°54'2 0.2
2017-Jul-25 15:58N 49°11' W 122°55'3 5.0
2017-Jul-25 15:27N 49°09' W 122°58'3 3.3
2017-Jul-25 14:36N 49°09' W 123°02'1 1.2
2017-Jul-25 13:59N 49°08' W 123°03'3 5.2
2017-Jul-25 13:28N 49°07' W 123°06'3 5.3
2017-Jul-25 12:58N 49°07' W 123°10'3 5.3
2017-Jul-25 12:28N 49°08' W 123°14'3 5.7
2017-Jul-25 12:00N 49°07' W 123°17'3 5.7
2017-Jul-25 11:29N 49°07' W 123°22'3 6.0
2017-Jul-25 10:59N 49°08' W 123°26'4 7.2
2017-Jul-25 10:28N 49°10' W 123°31'4 7.5
2017-Jul-25 09:59N 49°12' W 123°36'2 0.5
2017-Jul-25 05:52N 49°10' W 123°37'3 8.0
2017-Jul-25 05:30N 49°09' W 123°33'4 8.2
2017-Jul-25 04:58N 49°08' W 123°26'5 8.6
2017-Jul-25 04:26N 49°06' W 123°20'4 9.2
2017-Jul-25 03:58N 49°08' W 123°14'5 8.6
2017-Jul-25 03:21N 49°07' W 123°06'3 8.0
2017-Jul-25 02:57N 49°09' W 123°02'6 6.6
2017-Jul-25 02:01N 49°12' W 122°54'0 7.1
2017-Jul-25 01:58N 49°13' W 122°54'5 3.0
2017-Jul-25 00:14N 49°14' W 122°46'0 0.0
2017-Jul-24 23:55N 49°14' W 122°46'0 0.0
2017-Jul-24 23:30N 49°14' W 122°46'0 0.0
2017-Jul-24 22:58N 49°14' W 122°46'0 0.0
2017-Jul-24 22:27N 49°14' W 122°46'0 0.0
2017-Jul-24 21:56N 49°14' W 122°46'0 0.0
2017-Jul-24 21:29N 49°14' W 122°46'0 0.0
2017-Jul-24 20:53N 49°14' W 122°46'0 0.0
2017-Jul-24 20:25N 49°14' W 122°46'0 0.0
2017-Jul-24 19:58N 49°14' W 122°46'0 0.0
2017-Jul-24 19:27N 49°14' W 122°46'0 0.0
2017-Jul-24 18:58N 49°14' W 122°46'0 0.0
2017-Jul-24 18:29N 49°14' W 122°46'0 0.0
2017-Jul-24 17:58N 49°14' W 122°46'0 0.0
2017-Jul-24 16:52N 49°14' W 122°46'1 3.2
2017-Jul-24 16:29N 49°13' W 122°48'4 6.8
2017-Jul-24 15:57N 49°13' W 122°53'5 0.3
2017-Jul-24 01:20N 49°14' W 122°46'10 0.4
2017-Jul-22 23:31N 49°09' W 122°60'1 3.7
2017-Jul-22 23:16N 49°10' W 122°58'7 4.1
2017-Jul-22 21:27N 49°07' W 123°09'2 3.9
2017-Jul-22 20:54N 49°07' W 123°12'3 5.6
2017-Jul-22 20:26N 49°07' W 123°16'2 4.7
2017-Jul-22 20:00N 49°08' W 123°19'4 9.1
2017-Jul-22 19:30N 49°12' W 123°18'3 5.9
2017-Jul-22 18:57N 49°15' W 123°16'2 3.2
2017-Jul-22 18:28N 49°14' W 123°14'9 0.6
2017-Jul-22 01:26N 49°09' W 123°02'4 3.7
2017-Jul-22 00:24N 49°07' W 123°07'3 7.8
2017-Jul-21 23:59N 49°07' W 123°12'4 6.7
2017-Jul-21 23:27N 49°07' W 123°17'3 4.6
2017-Jul-21 22:53N 49°07' W 123°21'3 6.4
2017-Jul-21 22:24N 49°08' W 123°25'3 6.6
2017-Jul-21 22:00N 49°10' W 123°28'4 9.0
2017-Jul-21 21:30N 49°12' W 123°23'5 9.1
2017-Jul-21 21:00N 49°15' W 123°18'4 7.4
2017-Jul-21 20:30N 49°13' W 123°13'5 1.4
2017-Jul-21 16:54N 49°12' W 123°05'0 0.0
2017-Jul-21 16:25N 49°12' W 123°05'0 0.0
2017-Jul-21 16:00N 49°12' W 123°05'0 0.0
2017-Jul-21 00:07N 49°12' W 123°05'0 2.0
2017-Jul-21 00:00N 49°12' W 123°05'1 2.2
2017-Jul-20 23:29N 49°12' W 123°07'1 2.7
2017-Jul-20 23:00N 49°12' W 123°05'4 5.4
2017-Jul-20 22:13N 49°11' W 122°59'1 4.8
2017-Jul-20 22:00N 49°11' W 122°58'2 2.8
2017-Jul-20 21:16N 49°12' W 122°54'1 3.6
2017-Jul-20 20:59N 49°11' W 122°55'2 4.8
2017-Jul-20 20:29N 49°13' W 122°53'4 8.5
2017-Jul-20 19:58N 49°14' W 122°46'0 0.3
2017-Jul-20 19:29N 49°14' W 122°46'0 0.0
2017-Jul-20 19:00N 49°14' W 122°46'0 0.0
2017-Jul-20 18:30N 49°14' W 122°46'0 0.0
2017-Jul-20 18:00N 49°14' W 122°46'0 0.0
2017-Jul-20 17:30N 49°14' W 122°46'0 0.0
2017-Jul-20 17:00N 49°14' W 122°46'1 2.4
2017-Jul-20 16:26N 49°13' W 122°48'2 5.6
2017-Jul-20 16:00N 49°13' W 122°51'3 5.3
2017-Jul-20 15:30N 49°12' W 122°55'1 1.5
2017-Jul-20 15:00N 49°11' W 122°55'7 4.1
2017-Jul-20 13:22N 49°12' W 123°05'1 2.0
2017-Jul-20 12:37N 49°12' W 123°08'1 6.5
2017-Jul-20 12:29N 49°12' W 123°06'4 7.6
2017-Jul-20 11:55N 49°11' W 122°60'3 6.4
2017-Jul-20 11:30N 49°12' W 122°56'3 6.0
2017-Jul-20 10:59N 49°13' W 122°51'4 7.5
2017-Jul-20 10:30N 49°13' W 122°46'4 7.8
2017-Jul-20 09:57N 49°12' W 122°39'4 7.1
2017-Jul-20 09:24N 49°11' W 122°34'0 0.1
2017-Jul-20 06:23N 49°11' W 122°33'2 5.1
2017-Jul-20 05:59N 49°12' W 122°36'2 5.0
2017-Jul-20 05:29N 49°12' W 122°39'2 5.2
2017-Jul-20 05:00N 49°13' W 122°43'3 5.6
2017-Jul-20 04:30N 49°13' W 122°47'3 5.8
2017-Jul-20 04:00N 49°13' W 122°52'2 4.1
2017-Jul-20 03:28N 49°12' W 122°54'4 6.0
2017-Jul-20 02:51N 49°11' W 123°00'3 6.8
2017-Jul-20 02:21N 49°12' W 123°05'3 5.9
2017-Jul-20 01:53N 49°12' W 123°09'1 1.7
2017-Jul-20 01:21N 49°12' W 123°08'2 1.0
2017-Jul-19 23:44N 49°12' W 123°06'2 3.9
2017-Jul-19 23:08N 49°12' W 123°09'0 0.3
2017-Jul-19 22:59N 49°12' W 123°09'0 0.0
2017-Jul-19 22:26N 49°12' W 123°09'0 0.0
2017-Jul-19 21:53N 49°12' W 123°09'2 1.1
2017-Jul-19 19:47N 49°12' W 123°06'2 0.2
2017-Jul-19 11:25N 49°12' W 123°08'3 7.9
2017-Jul-19 11:00N 49°13' W 123°13'4 8.1
2017-Jul-19 10:30N 49°16' W 123°18'5 9.6
2017-Jul-19 10:00N 49°15' W 123°25'5 9.9
2017-Jul-19 09:30N 49°14' W 123°33'9 3.1
2017-Jul-19 06:36N 49°12' W 123°46'4 8.4
2017-Jul-19 06:10N 49°11' W 123°40'1 8.3
2017-Jul-19 06:00N 49°10' W 123°38'5 8.0
2017-Jul-19 05:26N 49°09' W 123°32'4 8.1
2017-Jul-19 04:59N 49°08' W 123°27'4 8.1
2017-Jul-19 04:29N 49°06' W 123°21'9 8.9
2017-Jul-19 03:29N 49°07' W 123°07'4 8.4
2017-Jul-19 03:00N 49°09' W 123°02'0 0.8
2017-Jul-19 02:29N 49°09' W 123°01'4 8.7
2017-Jul-19 02:00N 49°11' W 122°55'4 8.5
2017-Jul-19 01:30N 49°13' W 122°50'3 6.5
2017-Jul-19 01:00N 49°14' W 122°46'0 0.0
2017-Jul-18 10:31N 49°14' W 122°46'0 4.7
2017-Jul-18 10:29N 49°14' W 122°46'0 0.2
2017-Jul-18 10:00N 49°14' W 122°46'2 2.9
2017-Jul-18 09:28N 49°13' W 122°48'3 7.4
2017-Jul-18 08:59N 49°13' W 122°53'4 7.2
2017-Jul-18 08:29N 49°10' W 122°56'4 7.8
2017-Jul-18 08:00N 49°09' W 123°02'0 0.4
2017-Jul-18 07:30N 49°09' W 123°02'1 2.7
2017-Jul-18 07:00N 49°08' W 123°04'3 6.0
2017-Jul-18 06:30N 49°07' W 123°08'3 5.4
2017-Jul-18 06:00N 49°07' W 123°12'3 5.1
2017-Jul-18 05:28N 49°07' W 123°16'3 5.6
2017-Jul-18 05:00N 49°06' W 123°19'0 0.2
2017-Jul-18 04:26N 49°06' W 123°19'4 8.6
2017-Jul-18 04:00N 49°08' W 123°14'  

Dump ship's entire track history